Time;durP1;ratioP1;P1;durP2;ratioP2;P2;SDS_P1;SDS_P2;PMS_P1;PMS_P2;Temp;Humidity;BMP_temperature;BMP_pressure;BME280_temperature;BME280_humidity;BME280_pressure;Samples;Min_cycle;Max_cycle;Signal;HPM_P1;HPM_P2
2023/03/31 00:02:12;;;;;;;7.75;1.88;;;;;;;10.33;93.76;100258.13;4973824;28;19922;-88
2023/03/31 00:04:45;;;;;;;6.60;1.80;;;;;;;10.32;93.85;100254.66;4980423;28;20027;-88
2023/03/31 00:07:15;;;;;;;8.18;2.03;;;;;;;10.31;93.76;100245.09;4982232;28;20223;-88
2023/03/31 00:09:44;;;;;;;7.65;2.03;;;;;;;10.32;93.92;100248.59;4964418;28;20361;-88
2023/03/31 00:12:11;;;;;;;5.65;1.48;;;;;;;10.31;93.94;100234.63;4980766;28;20105;-88
2023/03/31 00:14:37;;;;;;;7.38;1.70;;;;;;;10.32;94.06;100230.28;4980666;28;20047;-87
2023/03/31 00:17:03;;;;;;;4.78;1.63;;;;;;;10.33;93.92;100218.84;4965676;28;20301;-88
2023/03/31 00:19:31;;;;;;;7.78;1.98;;;;;;;10.32;94.18;100211.94;4982700;28;20038;-88
2023/03/31 00:22:00;;;;;;;7.60;2.42;;;;;;;10.33;94.11;100211.00;4964697;28;20046;-88
2023/03/31 00:24:26;;;;;;;;;;;;;;;10.33;94.23;100200.53;4981057;28;20428;-88
2023/03/31 00:26:51;;;;;;;6.38;1.77;;;;;;;10.32;94.36;100197.09;4980273;28;20455;-88
2023/03/31 00:29:17;;;;;;;7.55;2.13;;;;;;;10.32;94.18;100188.41;4946412;28;20100;-88
2023/03/31 00:31:42;;;;;;;3.53;1.40;;;;;;;10.31;94.73;100189.31;4948255;28;20027;-88
2023/03/31 00:34:08;;;;;;;2.63;1.40;;;;;;;10.31;94.48;100186.69;4987626;28;20084;-88
2023/03/31 00:36:44;;;;;;;6.05;1.60;;;;;;;10.30;94.79;100177.97;4966587;28;20148;-88
2023/03/31 00:39:10;;;;;;;2.67;1.23;;;;;;;10.31;94.77;100173.59;4972219;28;20138;-88
2023/03/31 00:41:39;;;;;;;4.13;1.30;;;;;;;10.30;94.93;100164.88;4983563;28;20058;-88
2023/03/31 00:44:05;;;;;;;4.05;1.50;;;;;;;10.31;94.99;100163.13;5000959;28;20346;-88
2023/03/31 00:46:36;;;;;;;6.47;1.30;;;;;;;10.31;94.95;100168.38;4984002;28;20249;-88
2023/03/31 00:49:02;;;;;;;3.65;1.80;;;;;;;10.30;95.29;100162.25;4980062;28;20030;-88
2023/03/31 00:51:33;;;;;;;8.43;2.10;;;;;;;10.30;95.76;100150.94;4980310;28;20043;-88
2023/03/31 00:54:04;;;;;;;9.52;2.13;;;;;;;10.28;96.02;100143.19;4980069;28;20061;-88
2023/03/31 00:56:36;;;;;;;3.60;1.30;;;;;;;10.28;96.14;100139.72;4986852;28;20215;-88
2023/03/31 00:59:06;;;;;;;7.05;1.92;;;;;;;10.28;96.92;100130.09;4983727;28;20069;-88
2023/03/31 01:01:34;;;;;;;3.92;1.75;;;;;;;10.28;97.13;100129.25;4980238;28;20046;-88
2023/03/31 01:04:01;;;;;;;5.63;1.93;;;;;;;10.28;97.55;100132.72;4980272;28;20043;-88
2023/03/31 01:06:29;;;;;;;6.18;1.70;;;;;;;10.27;98.12;100128.38;4983106;28;20397;-88
2023/03/31 01:08:56;;;;;;;9.05;2.95;;;;;;;10.28;99.25;100114.38;4970895;28;20058;-88
2023/03/31 01:11:26;;;;;;;10.52;2.00;;;;;;;10.27;99.25;100109.22;4989842;28;20054;-88
2023/03/31 01:13:55;;;;;;;9.18;2.17;;;;;;;10.26;99.98;100108.38;4979719;28;20038;-88
2023/03/31 01:16:21;;;;;;;10.07;2.92;;;;;;;10.26;100.00;100094.44;4962551;28;20058;-88
2023/03/31 01:18:48;;;;;;;11.90;2.60;;;;;;;10.26;100.00;100086.59;4963111;28;20073;-88
2023/03/31 01:21:29;;;;;;;6.65;2.83;;;;;;;10.26;100.00;100086.59;4979847;28;20043;-88
2023/03/31 01:24:00;;;;;;;12.70;2.95;;;;;;;10.26;100.00;100097.91;4974903;28;20058;-88
2023/03/31 01:26:53;;;;;;;11.70;2.92;;;;;;;10.26;100.00;100082.22;4980724;28;20273;-87
2023/03/31 01:29:24;;;;;;;7.47;1.98;;;;;;;10.26;100.00;100074.38;4991268;28;20026;-87
2023/03/31 01:32:17;;;;;;;9.38;2.58;;;;;;;10.26;100.00;100069.13;4983541;28;20034;-87
2023/03/31 01:35:18;;;;;;;10.75;2.20;;;;;;;10.25;100.00;100063.97;4984046;28;20369;-87
2023/03/31 01:38:05;;;;;;;9.23;1.70;;;;;;;10.25;100.00;100058.75;4985808;28;20039;-87
2023/03/31 01:40:33;;;;;;;8.43;2.47;;;;;;;10.25;100.00;100048.28;4980514;28;20042;-87
2023/03/31 01:43:21;;;;;;;8.48;2.63;;;;;;;10.24;100.00;100050.06;4983814;28;20046;-87
2023/03/31 01:46:01;;;;;;;8.35;2.70;;;;;;;10.24;100.00;100036.09;4989413;28;20356;-87
2023/03/31 01:48:40;;;;;;;7.60;2.08;;;;;;;10.23;100.00;100024.78;4977237;28;20097;-87
2023/03/31 01:51:15;;;;;;;4.80;1.70;;;;;;;10.22;100.00;100020.47;4982981;28;20046;-87
2023/03/31 01:54:00;;;;;;;9.48;2.10;;;;;;;10.23;100.00;100014.34;4989326;28;20023;-88
2023/03/31 01:56:35;;;;;;;12.80;2.97;;;;;;;10.24;100.00;100007.31;4981165;28;20357;-87
2023/03/31 01:59:07;;;;;;;8.60;2.15;;;;;;;10.24;100.00;100004.69;4992498;28;20037;-87
2023/03/31 02:01:38;;;;;;;9.85;2.17;;;;;;;10.24;100.00;99989.88;4987718;28;20045;-87
2023/03/31 02:04:16;;;;;;;7.25;1.70;;;;;;;10.24;100.00;99983.75;5000821;28;20033;-87
2023/03/31 02:06:48;;;;;;;4.05;1.98;;;;;;;10.24;100.00;99981.16;4980266;28;20066;-87
2023/03/31 02:09:23;;;;;;;4.05;1.83;;;;;;;10.25;100.00;99970.59;4978115;28;20039;-87
2023/03/31 02:11:52;;;;;;;5.55;2.10;;;;;;;10.25;100.00;99954.91;4979512;28;20062;-87
2023/03/31 02:14:22;;;;;;;6.90;2.47;;;;;;;10.25;100.00;99949.66;4981503;28;20145;-87
2023/03/31 02:16:57;;;;;;;7.70;2.08;;;;;;;10.24;100.00;99942.75;4986885;28;20034;-87
2023/03/31 02:19:26;;;;;;;4.47;1.75;;;;;;;10.24;100.00;99931.44;4993284;28;20030;-87
2023/03/31 02:21:53;;;;;;;7.18;1.95;;;;;;;10.25;100.00;99920.88;4982247;28;20605;-87
2023/03/31 02:24:24;;;;;;;10.93;2.17;;;;;;;10.26;100.00;99913.88;4954047;29;20333;-87
2023/03/31 02:27:23;;;;;;;8.00;2.17;;;;;;;10.27;100.00;99905.09;4986101;28;20038;-87
2023/03/31 02:29:56;;;;;;;8.35;1.90;;;;;;;10.26;100.00;99899.03;4988283;28;20089;-87
2023/03/31 02:32:28;;;;;;;4.60;1.55;;;;;;;10.27;100.00;99889.41;4970289;28;20018;-87
2023/03/31 02:34:54;;;;;;;4.88;1.77;;;;;;;10.27;100.00;99885.00;4999191;28;20037;-87
2023/03/31 02:37:20;;;;;;;5.80;1.80;;;;;;;10.26;100.00;99878.09;4984119;28;20034;-87
2023/03/31 02:39:50;;;;;;;5.47;1.80;;;;;;;10.27;100.00;99871.09;4984551;28;20073;-87
2023/03/31 02:42:16;;;;;;;1.48;1.38;;;;;;;10.25;100.00;99857.25;4989363;28;20041;-87
2023/03/31 02:44:41;;;;;;;3.60;1.90;;;;;;;10.25;100.00;99849.41;4980709;28;20035;-87
2023/03/31 02:47:11;;;;;;;7.70;2.47;;;;;;;10.25;100.00;99849.41;4982147;28;20033;-87
2023/03/31 02:49:40;;;;;;;4.35;2.08;;;;;;;10.24;100.00;99845.06;4980272;28;20031;-87
2023/03/31 02:52:24;;;;;;;2.88;1.38;;;;;;;10.25;100.00;99834.53;4987872;28;20043;-87
2023/03/31 02:55:46;;;;;;;5.68;1.92;;;;;;;10.25;100.00;99831.09;4992613;28;20037;-87
2023/03/31 02:58:44;;;;;;;4.10;1.30;;;;;;;10.25;100.00;99823.22;4941453;28;20065;-87
2023/03/31 03:01:31;;;;;;;4.00;1.63;;;;;;;10.23;100.00;99815.47;4979108;28;20026;-87
2023/03/31 03:04:19;;;;;;;5.32;1.88;;;;;;;10.22;100.00;99813.75;4973811;28;20133;-86
2023/03/31 03:07:08;;;;;;;3.55;1.50;;;;;;;10.23;100.00;99812.84;4988665;28;20038;-86
2023/03/31 03:09:40;;;;;;;4.55;1.55;;;;;;;10.22;100.00;99802.47;4995060;28;20290;-86
2023/03/31 03:12:42;;;;;;;1.40;0.90;;;;;;;10.21;100.00;99798.16;4990390;28;20321;-87
2023/03/31 03:15:25;;;;;;;5.53;1.40;;;;;;;10.21;100.00;99785.09;4981981;28;20101;-86
2023/03/31 03:17:54;;;;;;;2.15;0.98;;;;;;;10.19;100.00;99782.56;4979954;28;20505;-87
2023/03/31 03:20:21;;;;;;;2.78;0.95;;;;;;;10.16;100.00;99778.31;4965231;28;20069;-87
2023/03/31 03:22:47;;;;;;;2.38;0.98;;;;;;;10.17;100.00;99772.16;4981155;28;20043;-86
2023/03/31 03:25:16;;;;;;;2.67;1.05;;;;;;;10.18;100.00;99770.38;4956209;28;20158;-86
2023/03/31 03:27:42;;;;;;;1.80;0.75;;;;;;;10.18;100.00;99755.53;4979829;28;20234;-87
2023/03/31 03:30:10;;;;;;;1.92;0.70;;;;;;;10.15;100.00;99741.78;4964511;28;20199;-86
2023/03/31 03:32:37;;;;;;;1.65;0.57;;;;;;;10.16;100.00;99731.22;4979749;28;20034;-86
2023/03/31 03:35:05;;;;;;;2.30;0.80;;;;;;;10.16;100.00;99722.53;4980057;28;20029;-86
2023/03/31 03:37:31;;;;;;;1.70;0.77;;;;;;;10.14;100.00;99701.69;4963745;28;20496;-87
2023/03/31 03:40:04;;;;;;;3.28;1.15;;;;;;;10.13;100.00;99704.38;4963585;28;20034;-87
2023/03/31 03:42:30;;;;;;;2.42;0.95;;;;;;;10.11;100.00;99686.16;4980241;28;20034;-86
2023/03/31 03:45:00;;;;;;;3.35;1.10;;;;;;;10.11;100.00;99675.69;4960486;28;20053;-87
2023/03/31 03:47:27;;;;;;;3.30;1.17;;;;;;;10.10;100.00;99670.56;4978407;28;20031;-87
2023/03/31 03:49:52;;;;;;;4.80;1.40;;;;;;;10.09;100.00;99663.66;4963482;28;20258;-86
2023/03/31 03:52:18;;;;;;;3.25;1.10;;;;;;;10.07;100.00;99653.25;4979970;28;20031;-86
2023/03/31 03:54:43;;;;;;;3.83;1.20;;;;;;;10.07;100.00;99657.66;4961881;28;20253;-86
2023/03/31 03:57:09;;;;;;;2.90;1.10;;;;;;;10.06;100.00;99650.72;4980592;28;20026;-87
2023/03/31 03:59:36;;;;;;;4.00;1.50;;;;;;;10.05;100.00;99636.81;4962988;28;20035;-87
2023/03/31 04:02:05;;;;;;;4.15;1.30;;;;;;;10.04;100.00;99623.81;4964301;28;20065;-86
2023/03/31 04:04:32;;;;;;;5.13;1.92;;;;;;;10.04;100.00;99626.44;4959917;28;20042;-87
2023/03/31 04:07:05;;;;;;;3.97;1.45;;;;;;;10.03;100.00;99619.53;4962746;28;20516;-86
2023/03/31 04:09:31;;;;;;;4.47;1.67;;;;;;;10.03;100.00;99615.16;4938423;29;20043;-86
2023/03/31 04:11:57;;;;;;;5.07;1.45;;;;;;;10.03;100.00;99611.69;4979526;28;20042;-87
2023/03/31 04:14:24;;;;;;;5.38;1.77;;;;;;;10.02;100.00;99604.75;4957337;28;20333;-87
2023/03/31 04:16:55;;;;;;;3.58;1.70;;;;;;;10.01;100.00;99593.47;4962863;28;20045;-87
2023/03/31 04:19:24;;;;;;;2.42;1.50;;;;;;;10.01;100.00;99590.03;4957750;28;20400;-86
2023/03/31 04:21:57;;;;;;;4.22;1.80;;;;;;;10.02;100.00;99582.06;4954389;28;20375;-86
2023/03/31 04:24:31;;;;;;;8.95;2.58;;;;;;;10.02;100.00;99563.75;4971738;28;20038;-86
2023/03/31 04:26:59;;;;;;;8.20;2.08;;;;;;;10.02;100.00;99571.59;4963162;28;20305;-87
2023/03/31 04:29:25;;;;;;;4.13;1.43;;;;;;;10.02;100.00;99568.16;4979165;28;20031;-87
2023/03/31 04:31:57;;;;;;;4.32;1.52;;;;;;;10.02;100.00;99561.13;4962653;28;20304;-87
2023/03/31 04:34:25;;;;;;;4.05;1.40;;;;;;;10.01;100.00;99554.25;4978981;28;20034;-87
2023/03/31 04:36:55;;;;;;;4.00;1.60;;;;;;;10.02;100.00;99563.75;4977883;28;20342;-87
2023/03/31 04:39:29;;;;;;;2.00;1.50;;;;;;;10.03;100.00;99544.53;4977853;28;20258;-86
2023/03/31 04:41:55;;;;;;;4.53;1.77;;;;;;;10.05;100.00;99547.06;4964589;28;20041;-87
2023/03/31 04:44:21;;;;;;;5.13;2.38;;;;;;;10.04;100.00;99537.50;4978715;28;20027;-87
2023/03/31 04:46:46;;;;;;;4.95;2.00;;;;;;;10.02;100.00;99532.38;4940343;28;20110;-87
2023/03/31 04:49:12;;;;;;;5.07;2.00;;;;;;;10.04;100.00;99522.69;4962798;28;20034;-86
2023/03/31 04:51:38;;;;;;;2.72;1.48;;;;;;;10.03;100.00;99522.75;4978472;28;20069;-87
2023/03/31 04:54:05;;;;;;;6.07;2.28;;;;;;;10.04;100.00;99521.81;4979009;28;20027;-86
2023/03/31 04:56:34;;;;;;;5.63;1.58;;;;;;;10.01;100.00;99509.78;4962303;28;20030;-87
2023/03/31 04:59:20;;;;;;;5.00;1.70;;;;;;;10.01;100.00;99501.94;4978739;28;20066;-87
2023/03/31 05:01:45;;;;;;;2.78;1.50;;;;;;;10.00;100.00;99502.84;4957342;28;20054;-86
2023/03/31 05:04:13;;;;;;;4.90;1.60;;;;;;;9.98;100.00;99496.88;4940728;28;20050;-86
2023/03/31 05:06:40;;;;;;;;;;;;;;;10.02;100.00;99497.53;4958912;28;20071;-87
2023/03/31 05:09:14;;;;;;;2.35;1.60;;;;;;;9.98;100.00;99496.88;4976529;28;19914;-86
2023/03/31 05:11:39;;;;;;;2.15;1.27;;;;;;;9.98;100.00;99487.25;4957632;28;20047;-87
2023/03/31 05:14:07;;;;;;;4.28;1.40;;;;;;;9.98;100.00;99481.19;4962075;28;20038;-86
2023/03/31 05:16:33;;;;;;;1.65;1.00;;;;;;;9.99;100.00;99480.25;4970389;28;20405;-87
2023/03/31 05:19:01;;;;;;;1.30;1.00;;;;;;;9.99;100.00;99483.69;4941381;29;20062;-86
2023/03/31 05:21:29;;;;;;;2.45;1.35;;;;;;;9.99;100.00;99470.63;4978147;28;20026;-86
2023/03/31 05:23:56;;;;;;;4.38;1.33;;;;;;;9.99;100.00;99481.09;4976854;28;20030;-86
2023/03/31 05:26:24;;;;;;;5.20;1.58;;;;;;;9.98;100.00;99475.94;4977210;28;20097;-87
2023/03/31 05:28:52;;;;;;;1.88;0.85;;;;;;;9.97;100.00;99472.50;4993087;28;20035;-86
2023/03/31 05:31:21;;;;;;;;;;;;;;;9.97;100.00;99469.06;4983035;28;20346;-86
2023/03/31 05:33:46;;;;;;;2.55;1.23;;;;;;;9.95;100.00;99465.66;4964658;28;19914;-87
2023/03/31 05:36:16;;;;;;;2.38;1.20;;;;;;;9.91;100.00;99451.09;4967984;28;20049;-86
2023/03/31 05:38:51;;;;;;;3.15;1.17;;;;;;;9.89;100.00;99453.78;4977250;28;20342;-87
2023/03/31 05:41:16;;;;;;;2.65;1.30;;;;;;;9.89;100.00;99458.19;4946707;28;20113;-86
2023/03/31 05:43:44;;;;;;;2.33;1.00;;;;;;;9.88;100.00;99457.34;4944936;28;20034;-86
2023/03/31 05:46:09;;;;;;;3.72;1.10;;;;;;;9.88;100.00;99462.59;4945949;28;20034;-86
2023/03/31 05:48:36;;;;;;;4.10;1.13;;;;;;;9.89;100.00;99451.19;4975861;28;20051;-86
2023/03/31 05:51:03;;;;;;;1.35;1.00;;;;;;;9.88;100.00;99444.28;4944685;28;20372;-87
2023/03/31 05:53:29;;;;;;;3.42;1.00;;;;;;;9.89;100.00;99450.34;4969945;28;20062;-87
2023/03/31 05:56:03;;;;;;;1.52;1.00;;;;;;;9.85;100.00;99443.63;4959679;28;20062;-86
2023/03/31 05:58:32;;;;;;;1.45;0.90;;;;;;;9.84;100.00;99441.94;4976103;28;20355;-86
2023/03/31 06:01:09;;;;;;;1.52;0.80;;;;;;;9.83;100.00;99442.88;4977368;28;20070;-86
2023/03/31 06:03:37;;;;;;;1.23;0.77;;;;;;;9.82;100.00;99438.56;4979368;28;20057;-87
2023/03/31 06:06:06;;;;;;;1.63;0.77;;;;;;;9.81;100.00;99435.13;4976733;28;20564;-87
2023/03/31 06:08:39;;;;;;;5.15;1.08;;;;;;;9.80;100.00;99431.69;4977512;28;20359;-86
2023/03/31 06:11:11;;;;;;;2.45;0.77;;;;;;;9.81;100.00;99440.34;4961358;28;20062;-86
2023/03/31 06:13:39;;;;;;;1.50;0.70;;;;;;;9.80;100.00;99423.84;4977079;28;20105;-86
2023/03/31 06:16:05;;;;;;;4.10;0.93;;;;;;;9.80;100.00;99422.97;4977447;28;20337;-86
2023/03/31 06:18:46;;;;;;;1.30;0.80;;;;;;;9.76;100.00;99413.63;4961278;28;20034;-86
2023/03/31 06:21:29;;;;;;;1.20;0.70;;;;;;;9.80;100.00;99429.06;4975685;28;20105;-87
2023/03/31 06:24:03;;;;;;;1.92;0.90;;;;;;;9.79;100.00;99416.91;4953195;28;20057;-86
2023/03/31 06:26:30;;;;;;;2.05;0.80;;;;;;;9.82;100.00;99426.31;4976162;28;20046;-87
2023/03/31 06:28:55;;;;;;;3.20;0.68;;;;;;;9.79;100.00;99423.91;4976913;28;20396;-86
2023/03/31 06:31:24;;;;;;;1.80;0.90;;;;;;;9.79;100.00;99414.28;4966695;28;20318;-86
2023/03/31 06:33:52;;;;;;;2.37;0.93;;;;;;;9.80;100.00;99416.00;4976807;28;20038;-86
2023/03/31 06:36:25;;;;;;;1.25;0.90;;;;;;;9.80;100.00;99405.53;4977133;28;20293;-86
2023/03/31 06:38:52;;;;;;;2.10;0.80;;;;;;;9.83;100.00;99407.09;4978590;28;20035;-86
2023/03/31 06:41:23;;;;;;;2.13;1.10;;;;;;;9.83;100.00;99404.50;4980589;28;20213;-86
2023/03/31 06:43:49;;;;;;;7.13;1.17;;;;;;;9.84;100.00;99395.72;4979057;28;20393;-86
2023/03/31 06:46:14;;;;;;;2.63;0.80;;;;;;;9.84;100.00;99387.88;4961244;28;20042;-86
2023/03/31 06:48:43;;;;;;;3.40;0.88;;;;;;;9.86;100.00;99391.25;4962978;28;20042;-86
2023/03/31 06:51:11;;;;;;;1.48;1.10;;;;;;;9.86;100.00;99374.69;4942258;28;20312;-86
2023/03/31 06:53:40;;;;;;;3.13;1.38;;;;;;;9.87;100.00;99377.22;4980211;28;20036;-86
2023/03/31 06:56:06;;;;;;;;;;;;;;;9.89;100.00;99382.34;4972043;28;20031;-86
2023/03/31 06:58:33;;;;;;;1.98;0.95;;;;;;;9.87;100.00;99385.06;4987996;28;19909;-86
2023/03/31 07:01:02;;;;;;;3.08;1.20;;;;;;;9.88;100.00;99375.47;4980408;28;20038;-87
2023/03/31 07:03:31;;;;;;;2.33;1.35;;;;;;;9.86;100.00;99369.47;4980026;28;20045;-87
2023/03/31 07:05:59;;;;;;;7.82;1.88;;;;;;;9.88;100.00;99385.94;4980439;28;20030;-86
2023/03/31 07:08:28;;;;;;;1.48;1.25;;;;;;;9.87;100.00;99372.00;4979681;28;20303;-86
2023/03/31 07:10:56;;;;;;;3.17;1.40;;;;;;;9.87;100.00;99379.84;4979622;28;20034;-86
2023/03/31 07:13:27;;;;;;;3.05;1.65;;;;;;;9.88;100.00;99378.06;4980591;28;20998;-86
2023/03/31 07:15:54;;;;;;;5.82;2.05;;;;;;;9.88;100.00;99368.44;4980423;28;20029;-87
2023/03/31 07:18:24;;;;;;;7.82;2.50;;;;;;;9.87;100.00;99374.59;4956555;28;20041;-87
2023/03/31 07:20:51;;;;;;;7.20;2.33;;;;;;;9.90;100.00;99370.97;4969043;28;20054;-86
2023/03/31 07:23:19;;;;;;;6.78;2.55;;;;;;;9.88;100.00;99365.84;4978944;28;20070;-87
2023/03/31 07:25:53;;;;;;;6.15;2.40;;;;;;;9.89;100.00;99364.88;4941594;28;20043;-86
2023/03/31 07:28:50;;;;;;;7.93;2.50;;;;;;;9.91;100.00;99364.78;4957215;28;20077;-86
2023/03/31 07:31:16;;;;;;;6.35;2.65;;;;;;;9.88;100.00;99365.84;4979092;28;20242;-86
2023/03/31 07:33:42;;;;;;;5.88;2.10;;;;;;;9.89;100.00;99366.66;4971085;28;20118;-86
2023/03/31 07:36:09;;;;;;;6.65;2.60;;;;;;;9.90;100.00;99358.72;4979605;28;20035;-86
2023/03/31 07:38:43;;;;;;;7.78;3.13;;;;;;;9.92;100.00;99361.25;4978439;28;20053;-86
2023/03/31 07:41:19;;;;;;;10.95;2.95;;;;;;;9.91;100.00;99352.56;4963481;28;20273;-86
2023/03/31 07:43:47;;;;;;;5.28;2.60;;;;;;;9.92;100.00;99345.56;4975718;28;20034;-86
2023/03/31 07:46:23;;;;;;;5.47;2.85;;;;;;;9.93;100.00;99342.88;4991914;28;20108;-87
2023/03/31 07:48:51;;;;;;;8.85;2.22;;;;;;;9.98;100.00;99348.63;4978095;28;20686;-87
2023/03/31 07:51:19;;;;;;;14.82;3.10;;;;;;;9.99;100.00;99345.09;4979372;28;20075;-87
2023/03/31 07:53:55;;;;;;;9.65;2.60;;;;;;;9.98;100.00;99342.56;4977264;28;20109;-87
2023/03/31 07:56:25;;;;;;;6.50;2.83;;;;;;;10.00;100.00;99335.47;4978615;28;20023;-86
2023/03/31 07:58:57;;;;;;;7.97;2.63;;;;;;;10.02;100.00;99332.75;4976184;28;20193;-86
2023/03/31 08:01:28;;;;;;;11.45;2.75;;;;;;;10.03;100.00;99337.88;4980196;28;20039;-86
2023/03/31 08:03:57;;;;;;;9.55;2.03;;;;;;;10.02;100.00;99324.91;4944376;28;20245;-86
2023/03/31 08:06:27;;;;;;;6.57;2.22;;;;;;;10.03;100.00;99319.59;4945370;28;20104;-86
2023/03/31 08:08:56;;;;;;;13.68;2.60;;;;;;;10.03;100.00;99324.81;4976917;28;20054;-86
2023/03/31 08:11:23;;;;;;;9.63;2.38;;;;;;;10.05;100.00;99322.94;4977922;28;20043;-86
2023/03/31 08:13:49;;;;;;;7.80;2.30;;;;;;;10.09;100.00;99323.59;4979362;28;20018;-86
2023/03/31 08:16:20;;;;;;;15.88;2.88;;;;;;;10.09;100.00;99318.34;4979529;28;20042;-87
2023/03/31 08:18:49;;;;;;;11.35;3.35;;;;;;;10.08;100.00;99309.69;4945660;28;20082;-86
2023/03/31 08:21:21;;;;;;;8.60;2.70;;;;;;;10.10;100.00;99306.97;4960826;28;20068;-86
2023/03/31 08:23:47;;;;;;;13.20;3.05;;;;;;;10.11;100.00;99299.00;4975606;28;20118;-86
2023/03/31 08:26:20;;;;;;;7.60;2.80;;;;;;;10.10;100.00;99279.03;4977677;28;20039;-86
2023/03/31 08:28:49;;;;;;;8.32;2.67;;;;;;;10.08;100.00;99278.28;4974935;28;20038;-86
2023/03/31 08:31:19;;;;;;;13.68;2.95;;;;;;;10.08;100.00;99287.91;4978353;28;20192;-87
2023/03/31 08:33:45;;;;;;;9.82;2.92;;;;;;;10.06;100.00;99285.41;4976849;28;20231;-86
2023/03/31 08:36:12;;;;;;;13.35;2.95;;;;;;;10.07;100.00;99289.69;4981422;28;20031;-86
2023/03/31 08:38:40;;;;;;;17.33;3.72;;;;;;;10.07;100.00;99297.53;4960448;28;20045;-86
2023/03/31 08:41:26;;;;;;;15.70;3.60;;;;;;;10.09;100.00;99276.50;4976619;28;20041;-86
2023/03/31 08:43:59;;;;;;;15.30;3.10;;;;;;;10.10;100.00;99280.81;4969050;28;20245;-86
2023/03/31 08:46:29;;;;;;;15.48;3.75;;;;;;;10.12;100.00;99273.69;4975279;28;20298;-86
2023/03/31 08:48:58;;;;;;;12.38;2.65;;;;;;;10.14;100.00;99266.59;4978274;28;20026;-86
2023/03/31 08:51:26;;;;;;;15.43;3.75;;;;;;;10.14;100.00;99272.66;4978412;28;20069;-86
2023/03/31 08:54:06;;;;;;;24.85;3.67;;;;;;;10.15;100.00;99269.13;4977363;28;20649;-87
2023/03/31 08:56:39;;;;;;;21.08;3.65;;;;;;;10.17;100.00;99271.63;4977730;28;20211;-86
2023/03/31 08:59:06;;;;;;;11.57;2.78;;;;;;;10.23;100.00;99267.78;4978053;28;20333;-87
2023/03/31 09:01:54;;;;;;;16.77;3.10;;;;;;;10.25;100.00;99263.28;4978766;28;20160;-86
2023/03/31 09:04:31;;;;;;;28.65;3.80;;;;;;;10.30;100.00;99266.47;4978561;28;20041;-87
2023/03/31 09:07:08;;;;;;;14.93;4.57;;;;;;;10.32;100.00;99251.53;4978549;28;20326;-87
2023/03/31 09:10:01;;;;;;;15.13;3.00;;;;;;;10.37;100.00;99249.44;4977026;28;20062;-86
2023/03/31 09:12:30;;;;;;;17.05;3.85;;;;;;;10.38;100.00;99253.72;4978296;28;20030;-86
2023/03/31 09:15:00;;;;;;;13.45;3.45;;;;;;;10.41;100.00;99263.19;4980641;28;20045;-86
2023/03/31 09:17:50;;;;;;;14.13;4.05;;;;;;;10.41;100.00;99252.72;4977380;28;20031;-87
2023/03/31 09:20:21;;;;;;;15.32;2.70;;;;;;;10.38;100.00;99248.50;4977435;28;20034;-86
2023/03/31 09:23:05;;;;;;;17.05;2.78;;;;;;;10.40;100.00;99251.00;4980170;28;20027;-87
2023/03/31 09:25:37;;;;;;;23.95;3.40;;;;;;;10.40;100.00;99249.22;4977333;28;20041;-86
2023/03/31 09:28:13;;;;;;;15.55;3.42;;;;;;;10.41;100.00;99237.84;4979875;28;20045;-87
2023/03/31 09:30:41;;;;;;;16.05;3.03;;;;;;;10.43;100.00;99245.59;4978191;28;20061;-87
2023/03/31 09:33:32;;;;;;;18.13;3.73;;;;;;;10.44;100.00;99223.69;4985127;28;20041;-86
2023/03/31 09:36:12;;;;;;;14.15;3.35;;;;;;;10.44;100.00;99221.09;4982722;28;20054;-86
2023/03/31 09:38:40;;;;;;;15.80;3.50;;;;;;;10.44;100.00;99213.22;4976446;28;20034;-87
2023/03/31 09:44:01;;;;;;;16.02;4.43;;;;;;;10.42;100.00;99213.31;4978432;28;20354;-86
2023/03/31 09:46:33;;;;;;;16.80;2.70;;;;;;;10.47;100.00;99213.03;4977277;28;20031;-87
2023/03/31 09:49:14;;;;;;;15.55;2.92;;;;;;;10.50;100.00;99212.84;4965224;28;20093;-87
2023/03/31 09:51:47;;;;;;;14.90;3.20;;;;;;;10.51;100.00;99207.50;4980363;28;20100;-86
2023/03/31 09:54:21;;;;;;;15.55;3.30;;;;;;;10.51;100.00;99207.50;4975807;28;20037;-86
2023/03/31 09:56:47;;;;;;;17.52;3.30;;;;;;;10.52;100.00;99206.56;4973492;28;20027;-89
2023/03/31 09:59:34;;;;;;;19.15;2.55;;;;;;;10.49;100.00;99209.38;4977358;28;20199;-87
2023/03/31 10:02:23;;;;;;;13.70;3.20;;;;;;;10.48;100.00;99207.69;4958100;28;20074;-86
2023/03/31 10:04:50;;;;;;;23.17;3.72;;;;;;;10.51;100.00;99212.75;4973655;28;20123;-87
2023/03/31 10:07:22;;;;;;;14.60;3.08;;;;;;;10.49;100.00;99211.97;4945026;28;20078;-86
2023/03/31 10:10:09;;;;;;;15.70;2.92;;;;;;;10.50;100.00;99207.59;4978195;28;20039;-87
2023/03/31 10:12:35;;;;;;;22.70;3.05;;;;;;;10.49;100.00;99187.59;4974928;28;20114;-87
2023/03/31 10:15:20;;;;;;;14.07;2.30;;;;;;;10.50;100.00;99202.38;4976214;28;20054;-87
2023/03/31 10:17:47;;;;;;;12.65;2.63;;;;;;;10.49;100.00;99193.66;4976872;28;20362;-86
2023/03/31 10:20:36;;;;;;;13.27;2.80;;;;;;;10.47;100.00;99189.47;4976053;28;20035;-87
2023/03/31 10:23:18;;;;;;;10.27;2.75;;;;;;;10.44;100.00;99193.16;4975968;28;20035;-87
2023/03/31 10:25:46;;;;;;;13.35;2.45;;;;;;;10.42;100.00;99215.13;4976360;28;20058;-87
2023/03/31 10:28:15;;;;;;;11.27;2.05;;;;;;;10.42;100.00;99197.63;4960443;28;20125;-87
2023/03/31 10:30:54;;;;;;;11.55;2.10;;;;;;;10.43;100.00;99198.47;4976212;28;20030;-86
2023/03/31 10:33:24;;;;;;;11.63;2.47;;;;;;;10.42;100.00;99210.72;4977225;28;20041;-88
2023/03/31 10:35:58;;;;;;;10.65;2.53;;;;;;;10.43;100.00;99211.56;4976388;28;20105;-87
2023/03/31 10:38:39;;;;;;;14.30;4.35;;;;;;;10.41;100.00;99206.44;4975898;28;20033;-86
2023/03/31 10:41:05;;;;;;;11.88;2.50;;;;;;;10.39;100.00;99197.84;4977128;28;20273;-87
2023/03/31 10:43:47;;;;;;;24.00;4.63;;;;;;;10.38;100.00;99207.44;4942476;28;20031;-87
2023/03/31 10:46:19;;;;;;;16.23;2.25;;;;;;;10.38;100.00;99201.38;4977475;28;20038;-86
2023/03/31 10:48:46;;;;;;;12.55;2.80;;;;;;;10.41;100.00;99201.19;4975746;28;20049;-87
2023/03/31 10:51:16;;;;;;;8.40;1.80;;;;;;;10.43;100.00;99195.88;4957468;28;20327;-86
2023/03/31 10:53:56;;;;;;;10.18;2.25;;;;;;;10.44;100.00;99184.44;4974514;28;20038;-87
2023/03/31 10:56:27;;;;;;;16.15;2.63;;;;;;;10.44;100.00;99193.16;4957987;28;20234;-87
2023/03/31 10:59:12;;;;;;;13.27;2.38;;;;;;;10.45;100.00;99178.28;4976496;28;20042;-86
2023/03/31 11:02:14;;;;;;;10.32;2.50;;;;;;;10.45;100.00;99173.88;4979810;28;20352;-86
2023/03/31 11:04:52;;;;;;;10.88;2.50;;;;;;;10.45;100.00;99173.03;4975535;28;20412;-87
2023/03/31 11:07:30;;;;;;;12.70;2.40;;;;;;;10.45;100.00;99166.03;4976992;28;20039;-86
2023/03/31 11:10:38;;;;;;;12.68;2.47;;;;;;;10.45;100.00;99173.88;4977608;28;20274;-86
2023/03/31 11:13:10;;;;;;;7.43;2.40;;;;;;;10.45;100.00;99166.03;4982265;28;20054;-87
2023/03/31 11:16:04;;;;;;;16.65;2.70;;;;;;;10.41;100.00;99159.31;4975649;28;20069;-86
2023/03/31 11:19:02;;;;;;;13.15;2.42;;;;;;;10.38;100.00;99167.38;4976772;28;20038;-86
2023/03/31 11:21:46;;;;;;;10.90;2.90;;;;;;;10.38;100.00;99170.00;4977168;28;20026;-86
2023/03/31 11:24:38;;;;;;;11.60;2.33;;;;;;;10.34;100.00;99174.59;4972137;28;20042;-86
2023/03/31 11:27:18;;;;;;;10.93;2.00;;;;;;;10.32;100.00;99167.78;4976370;28;20294;-86
2023/03/31 11:30:09;;;;;;;8.15;2.05;;;;;;;10.32;100.00;99166.00;4968146;28;20380;-86
2023/03/31 11:32:52;;;;;;;12.05;2.42;;;;;;;10.33;100.00;99164.22;4978405;28;20058;-86
2023/03/31 11:35:37;;;;;;;10.50;1.90;;;;;;;10.34;100.00;99163.28;4981641;28;20041;-86
2023/03/31 11:38:14;;;;;;;13.23;1.95;;;;;;;10.36;100.00;99171.88;4980211;28;20101;-86
2023/03/31 11:40:50;;;;;;;7.15;1.77;;;;;;;10.34;100.00;99155.44;4981872;28;20031;-86
2023/03/31 11:43:33;;;;;;;7.40;1.88;;;;;;;10.35;100.00;99154.47;4991807;28;20038;-86
2023/03/31 11:46:31;;;;;;;3.85;1.10;;;;;;;10.36;100.00;99150.94;4977925;28;20099;-86
2023/03/31 11:49:05;;;;;;;5.43;1.60;;;;;;;10.33;100.00;99138.06;4973088;28;20125;-86
2023/03/31 11:51:56;;;;;;;9.57;1.60;;;;;;;10.38;100.00;99135.97;4974779;28;20433;-86
2023/03/31 11:54:51;;;;;;;;;;;;;;;10.38;100.00;99147.25;4975708;28;20403;-87